createdAt,value
2023-04-16T00:00:37.669Z,17.60
2023-04-16T00:03:08.046Z,17.60
2023-04-16T00:05:35.877Z,16.50
2023-04-16T00:08:03.283Z,17.63
2023-04-16T00:10:32.558Z,18.90
2023-04-16T00:12:59.147Z,18.10
2023-04-16T00:15:25.910Z,17.53
2023-04-16T00:17:52.827Z,18.13
2023-04-16T00:20:20.473Z,21.30
2023-04-16T00:22:47.131Z,18.20
2023-04-16T00:25:14.141Z,18.07
2023-04-16T00:27:40.749Z,18.47
2023-04-16T00:30:07.894Z,19.10
2023-04-16T00:32:34.652Z,19.88
2023-04-16T00:35:01.310Z,18.73
2023-04-16T00:37:27.997Z,18.95
2023-04-16T00:39:54.680Z,19.67
2023-04-16T00:42:21.287Z,18.43
2023-04-16T00:44:47.921Z,19.25
2023-04-16T00:47:14.629Z,20.07
2023-04-16T00:49:41.426Z,17.67
2023-04-16T00:52:08.058Z,20.70
2023-04-16T00:54:34.819Z,18.23
2023-04-16T00:57:02.286Z,17.93
2023-04-16T00:59:29.569Z,19.03
2023-04-16T01:01:56.299Z,20.67
2023-04-16T01:04:23.214Z,21.17
2023-04-16T01:06:49.938Z,19.40
2023-04-16T01:09:16.954Z,19.60
2023-04-16T01:11:43.601Z,19.63
2023-04-16T01:14:11.160Z,18.93
2023-04-16T01:16:38.446Z,19.47
2023-04-16T01:19:05.306Z,20.58
2023-04-16T01:21:32.428Z,20.60
2023-04-16T01:24:03.658Z,18.17
2023-04-16T01:26:31.102Z,19.02
2023-04-16T01:28:57.939Z,19.30
2023-04-16T01:31:24.808Z,20.00
2023-04-16T01:33:51.513Z,19.57
2023-04-16T01:36:18.288Z,18.60
2023-04-16T01:38:44.954Z,19.53
2023-04-16T01:41:11.743Z,18.40
2023-04-16T01:43:40.169Z,20.10
2023-04-16T01:46:27.525Z,20.93
2023-04-16T01:48:55.014Z,19.63
2023-04-16T01:51:22.144Z,19.53
2023-04-16T01:53:49.871Z,19.35
2023-04-16T01:56:16.956Z,20.17
2023-04-16T01:58:43.680Z,18.83
2023-04-16T02:01:13.625Z,19.97
2023-04-16T02:03:43.130Z,19.27
2023-04-16T02:06:09.898Z,21.53
2023-04-16T02:08:36.570Z,21.10
2023-04-16T02:11:03.259Z,19.30
2023-04-16T02:13:29.913Z,20.47
2023-04-16T02:15:56.555Z,19.30
2023-04-16T02:18:23.216Z,19.07
2023-04-16T02:20:49.914Z,21.10
2023-04-16T02:23:17.447Z,19.80
2023-04-16T02:25:47.750Z,21.80
2023-04-16T02:28:16.834Z,20.60
2023-04-16T02:30:45.451Z,21.07
2023-04-16T02:33:12.468Z,19.90
2023-04-16T02:35:40.132Z,19.93
2023-04-16T02:38:07.609Z,19.67
2023-04-16T02:40:35.036Z,20.43
2023-04-16T02:43:02.012Z,19.87
2023-04-16T02:45:28.788Z,20.27
2023-04-16T02:47:55.455Z,17.97
2023-04-16T02:50:22.186Z,17.73
2023-04-16T02:52:48.937Z,21.30
2023-04-16T02:55:16.102Z,21.37
2023-04-16T02:57:42.789Z,22.57
2023-04-16T03:00:10.111Z,19.67
2023-04-16T03:02:36.871Z,21.50
2023-04-16T03:05:04.189Z,21.23
2023-04-16T03:07:30.942Z,18.83
2023-04-16T03:09:57.574Z,21.67
2023-04-16T03:12:24.256Z,19.30
2023-04-16T03:14:52.676Z,20.70
2023-04-16T03:17:19.454Z,21.47
2023-04-16T03:19:46.232Z,20.47
2023-04-16T03:22:12.976Z,21.33
2023-04-16T03:24:39.719Z,20.40
2023-04-16T03:27:06.384Z,18.83
2023-04-16T03:29:33.049Z,22.23
2023-04-16T03:31:59.656Z,20.13
2023-04-16T03:34:26.655Z,20.40
2023-04-16T03:36:53.229Z,21.37
2023-04-16T03:39:19.839Z,20.97
2023-04-16T03:41:47.495Z,20.73
2023-04-16T03:44:14.102Z,18.33
2023-04-16T03:46:40.966Z,19.63
2023-04-16T03:49:08.235Z,19.23
2023-04-16T03:51:35.160Z,21.63
2023-04-16T03:54:01.895Z,21.35
2023-04-16T03:56:28.523Z,20.87
2023-04-16T03:58:55.155Z,21.13
2023-04-16T04:01:21.763Z,20.85
2023-04-16T04:03:48.600Z,20.67
2023-04-16T04:06:15.362Z,20.80
2023-04-16T04:08:42.003Z,21.10
2023-04-16T04:11:08.631Z,21.13
2023-04-16T04:13:35.362Z,20.57
2023-04-16T04:16:02.132Z,19.93
2023-04-16T04:18:28.904Z,21.13
2023-04-16T04:20:55.544Z,20.90
2023-04-16T04:23:22.159Z,20.07
2023-04-16T04:25:49.149Z,21.77
2023-04-16T04:28:16.108Z,20.63
2023-04-16T04:30:42.715Z,20.87
2023-04-16T04:33:09.426Z,21.37
2023-04-16T04:35:36.031Z,19.87
2023-04-16T04:38:03.160Z,20.03
2023-04-16T04:40:29.781Z,22.63
2023-04-16T04:42:56.591Z,22.00
2023-04-16T04:45:25.658Z,21.10
2023-04-16T04:47:53.008Z,19.57
2023-04-16T04:50:19.789Z,21.17
2023-04-16T04:52:46.397Z,20.77
2023-04-16T04:55:15.772Z,18.60
2023-04-16T04:57:42.708Z,20.93
2023-04-16T05:00:09.804Z,22.93
2023-04-16T05:02:36.662Z,21.53
2023-04-16T05:05:04.380Z,22.50
2023-04-16T05:07:33.736Z,21.50
2023-04-16T05:10:00.796Z,20.03
2023-04-16T05:12:27.459Z,21.90
2023-04-16T05:14:54.183Z,21.33
2023-04-16T05:17:20.966Z,22.10
2023-04-16T05:19:47.772Z,19.93
2023-04-16T05:22:14.462Z,21.20
2023-04-16T05:24:41.132Z,20.52
2023-04-16T05:27:07.827Z,22.33
2023-04-16T05:29:34.462Z,20.93
2023-04-16T05:32:01.954Z,20.47
2023-04-16T05:34:28.704Z,20.70
2023-04-16T05:36:55.402Z,21.20
2023-04-16T05:39:22.117Z,21.20
2023-04-16T05:41:48.877Z,21.00
2023-04-16T05:44:18.116Z,21.80
2023-04-16T05:46:44.906Z,20.53
2023-04-16T05:49:11.910Z,21.33
2023-04-16T05:51:38.772Z,20.73
2023-04-16T05:54:05.683Z,20.90
2023-04-16T05:56:32.339Z,22.03
2023-04-16T05:58:59.040Z,18.80
2023-04-16T06:01:25.895Z,20.85
2023-04-16T06:03:52.758Z,20.53
2023-04-16T06:06:19.534Z,20.33
2023-04-16T06:08:46.415Z,20.27
2023-04-16T06:11:13.119Z,19.40
2023-04-16T06:13:39.915Z,19.73
2023-04-16T06:16:06.768Z,20.60
2023-04-16T06:18:33.438Z,20.00
2023-04-16T06:21:00.349Z,18.53
2023-04-16T06:23:27.145Z,22.45
2023-04-16T06:25:54.365Z,23.00
2023-04-16T06:28:21.118Z,20.40
2023-04-16T06:30:48.695Z,19.40
2023-04-16T06:33:15.427Z,20.65
2023-04-16T06:35:42.232Z,20.83
2023-04-16T06:38:08.949Z,19.55
2023-04-16T06:40:37.550Z,20.00
2023-04-16T06:43:04.244Z,19.20
2023-04-16T06:45:30.970Z,18.33
2023-04-16T06:47:59.107Z,21.87
2023-04-16T06:50:26.964Z,21.07
2023-04-16T06:52:55.572Z,20.48
2023-04-16T06:55:22.586Z,19.23
2023-04-16T06:57:49.323Z,20.23
2023-04-16T07:00:16.345Z,19.77
2023-04-16T07:02:43.240Z,20.77
2023-04-16T07:05:10.139Z,20.67
2023-04-16T07:07:37.038Z,20.63
2023-04-16T07:10:05.480Z,19.55
2023-04-16T07:12:33.157Z,20.40
2023-04-16T07:15:00.332Z,19.93
2023-04-16T07:17:27.302Z,20.98
2023-04-16T07:19:54.079Z,19.70
2023-04-16T07:22:21.103Z,19.50
2023-04-16T07:24:48.012Z,19.35
2023-04-16T07:27:14.924Z,19.95
2023-04-16T07:29:41.727Z,18.27
2023-04-16T07:32:08.769Z,19.08
2023-04-16T07:34:35.670Z,18.38
2023-04-16T07:37:02.452Z,17.38
2023-04-16T07:39:29.175Z,19.00
2023-04-16T07:41:56.089Z,17.98
2023-04-16T07:44:22.825Z,18.08
2023-04-16T07:46:49.694Z,18.17
2023-04-16T07:49:16.548Z,18.65
2023-04-16T07:51:43.560Z,17.92
2023-04-16T07:54:11.156Z,16.60
2023-04-16T07:56:37.918Z,16.45
2023-04-16T07:59:18.310Z,17.98
2023-04-16T08:01:48.531Z,16.65
2023-04-16T08:04:17.541Z,17.63
2023-04-16T08:06:44.393Z,16.55
2023-04-16T08:09:11.284Z,18.48
2023-04-16T08:11:38.324Z,17.02
2023-04-16T08:14:05.073Z,15.25
2023-04-16T08:16:31.853Z,16.73
2023-04-16T08:19:01.003Z,16.98
2023-04-16T08:21:28.284Z,16.88
2023-04-16T08:23:55.000Z,17.23
2023-04-16T08:26:21.764Z,17.95
2023-04-16T08:28:48.623Z,17.98
2023-04-16T08:31:15.376Z,15.55
2023-04-16T08:33:42.223Z,16.08
2023-04-16T08:36:09.232Z,15.25
2023-04-16T08:38:36.029Z,17.02
2023-04-16T08:41:03.679Z,15.85
2023-04-16T08:43:33.753Z,16.25
2023-04-16T08:46:01.268Z,16.08
2023-04-16T08:48:33.686Z,14.40
2023-04-16T08:51:02.420Z,14.98
2023-04-16T08:53:33.333Z,15.60
2023-04-16T08:56:04.863Z,14.00
2023-04-16T08:58:34.706Z,13.93
2023-04-16T09:01:03.919Z,13.20
2023-04-16T09:03:36.439Z,12.88
2023-04-16T09:06:04.570Z,13.15
2023-04-16T09:08:32.350Z,13.27
2023-04-16T09:10:59.664Z,12.63
2023-04-16T09:13:27.061Z,13.05
2023-04-16T09:15:54.787Z,12.85
2023-04-16T09:18:21.713Z,13.60
2023-04-16T09:20:49.781Z,10.82
2023-04-16T09:23:16.645Z,10.80
2023-04-16T09:25:45.309Z,11.18
2023-04-16T09:28:13.858Z,11.35
2023-04-16T09:30:41.146Z,11.35
2023-04-16T09:33:17.856Z,10.77
2023-04-16T09:35:46.697Z,11.13
2023-04-16T09:38:13.544Z,12.05
2023-04-16T09:40:40.496Z,11.43
2023-04-16T09:43:18.044Z,10.23
2023-04-16T09:45:52.367Z,10.27
2023-04-16T09:48:32.413Z,10.93
2023-04-16T09:51:00.542Z,9.95
2023-04-16T09:53:29.066Z,8.80
2023-04-16T09:56:00.772Z,9.25
2023-04-16T09:58:29.796Z,10.00
2023-04-16T10:01:03.753Z,9.07
2023-04-16T10:03:32.138Z,9.13
2023-04-16T10:06:14.734Z,9.57
2023-04-16T10:08:58.524Z,8.88
2023-04-16T10:11:25.931Z,7.78
2023-04-16T10:13:52.754Z,7.82
2023-04-16T10:16:19.644Z,8.43
2023-04-16T10:18:47.284Z,8.85
2023-04-16T10:21:16.756Z,8.25
2023-04-16T10:23:44.018Z,7.93
2023-04-16T10:26:10.927Z,8.05
2023-04-16T10:28:37.682Z,8.63
2023-04-16T10:31:07.463Z,7.47
2023-04-16T10:33:40.822Z,7.03
2023-04-16T10:36:08.099Z,7.93
2023-04-16T10:38:35.453Z,8.27
2023-04-16T10:41:03.635Z,7.57
2023-04-16T10:43:31.715Z,8.02
2023-04-16T10:46:18.005Z,8.15
2023-04-16T10:51:34.922Z,8.23
2023-04-16T10:54:20.086Z,8.13
2023-04-16T10:56:47.430Z,7.70
2023-04-16T10:59:18.424Z,7.68
2023-04-16T11:02:00.183Z,7.55
2023-04-16T11:04:29.974Z,7.22
2023-04-16T11:07:06.201Z,7.45
2023-04-16T11:09:53.673Z,7.65
2023-04-16T11:12:44.957Z,7.28
2023-04-16T11:15:16.200Z,7.70
2023-04-16T11:17:43.683Z,8.15
2023-04-16T11:20:19.097Z,7.68
2023-04-16T11:22:48.135Z,7.28
2023-04-16T11:25:20.850Z,9.50
2023-04-16T11:27:47.634Z,7.88
2023-04-16T11:30:14.520Z,6.63
2023-04-16T11:32:41.506Z,7.43
2023-04-16T11:35:16.675Z,7.50
2023-04-16T11:37:44.005Z,7.43
2023-04-16T11:40:11.786Z,7.50
2023-04-16T11:42:44.773Z,7.90
2023-04-16T11:45:12.421Z,7.80
2023-04-16T11:47:52.799Z,7.07
2023-04-16T11:50:29.800Z,7.50
2023-04-16T11:53:03.957Z,6.82
2023-04-16T11:57:57.949Z,6.60
2023-04-16T12:00:25.082Z,7.35
2023-04-16T12:02:58.971Z,6.93
2023-04-16T12:05:38.902Z,6.53
2023-04-16T12:08:10.611Z,7.00
2023-04-16T12:10:58.389Z,6.68
2023-04-16T12:13:25.067Z,6.32
2023-04-16T12:15:54.006Z,6.22
2023-04-16T12:18:23.040Z,6.65
2023-04-16T12:20:53.424Z,6.68
2023-04-16T12:23:23.577Z,6.80
2023-04-16T12:25:52.083Z,6.25
2023-04-16T12:28:38.337Z,6.65
2023-04-16T12:31:08.576Z,6.00
2023-04-16T12:33:35.562Z,6.22
2023-04-16T12:36:17.405Z,6.97
2023-04-16T12:38:44.201Z,5.95
2023-04-16T12:41:10.914Z,5.97
2023-04-16T12:43:37.650Z,6.30
2023-04-16T12:46:04.905Z,6.03
2023-04-16T12:48:32.661Z,6.03
2023-04-16T12:50:59.427Z,5.90
2023-04-16T12:53:26.209Z,5.90
2023-04-16T12:55:53.212Z,6.47
2023-04-16T12:58:19.920Z,5.47
2023-04-16T13:00:46.627Z,5.07
2023-04-16T13:03:13.594Z,5.40
2023-04-16T13:05:40.634Z,4.70
2023-04-16T13:08:07.358Z,5.68
2023-04-16T13:10:35.162Z,4.72
2023-04-16T13:13:01.855Z,5.07
2023-04-16T13:15:28.964Z,6.32
2023-04-16T13:17:55.867Z,5.00
2023-04-16T13:20:24.401Z,5.20
2023-04-16T13:22:51.500Z,4.93
2023-04-16T13:25:18.223Z,5.28
2023-04-16T13:27:44.942Z,5.15
2023-04-16T13:30:12.026Z,5.03
2023-04-16T13:32:38.771Z,5.75
2023-04-16T13:35:06.146Z,4.68
2023-04-16T13:37:33.173Z,4.60
2023-04-16T13:39:59.926Z,5.18
2023-04-16T13:42:26.874Z,4.78
2023-04-16T13:44:55.069Z,3.92
2023-04-16T13:47:22.127Z,4.70
2023-04-16T13:49:49.027Z,4.32
2023-04-16T13:52:15.666Z,4.07
2023-04-16T13:54:42.829Z,4.78
2023-04-16T13:57:09.733Z,4.25
2023-04-16T13:59:36.454Z,4.20
2023-04-16T14:02:03.653Z,4.53
2023-04-16T14:04:30.570Z,5.15
2023-04-16T14:06:57.395Z,5.28
2023-04-16T14:09:24.508Z,4.60
2023-04-16T14:11:52.498Z,10.02
2023-04-16T14:14:21.612Z,6.85
2023-04-16T14:16:48.348Z,5.07
2023-04-16T14:19:15.198Z,8.57
2023-04-16T14:21:41.834Z,5.78
2023-04-16T14:24:09.248Z,4.95
2023-04-16T14:26:35.987Z,5.07
2023-04-16T14:29:02.643Z,5.40
2023-04-16T14:31:29.282Z,6.35
2023-04-16T14:33:56.071Z,6.05
2023-04-16T14:36:22.732Z,5.72
2023-04-16T14:38:49.434Z,6.10
2023-04-16T14:41:16.159Z,7.00
2023-04-16T14:43:44.438Z,6.57
2023-04-16T14:46:11.108Z,6.15
2023-04-16T14:48:38.989Z,6.80
2023-04-16T14:51:07.240Z,6.72
2023-04-16T14:53:34.454Z,6.78
2023-04-16T14:56:01.705Z,6.40
2023-04-16T14:58:28.546Z,6.90
2023-04-16T15:00:55.586Z,7.10
2023-04-16T15:03:22.593Z,6.35
2023-04-16T15:05:55.462Z,6.28
2023-04-16T15:08:23.241Z,6.47
2023-04-16T15:10:51.185Z,6.55
2023-04-16T15:13:18.202Z,6.55
2023-04-16T15:15:45.051Z,6.82
2023-04-16T15:18:11.772Z,6.32
2023-04-16T15:20:38.685Z,6.40
2023-04-16T15:23:05.378Z,6.60
2023-04-16T15:25:32.532Z,6.53
2023-04-16T15:27:59.580Z,5.90
2023-04-16T15:30:26.505Z,5.93
2023-04-16T15:32:55.053Z,5.50
2023-04-16T15:35:22.038Z,5.80
2023-04-16T15:37:48.947Z,6.05
2023-04-16T15:40:18.730Z,5.70
2023-04-16T15:42:45.662Z,5.72
2023-04-16T15:45:12.345Z,5.53
2023-04-16T15:47:41.489Z,6.15
2023-04-16T15:50:08.778Z,5.10
2023-04-16T15:52:36.365Z,5.35
2023-04-16T15:55:04.354Z,6.47
2023-04-16T15:57:31.414Z,5.95
2023-04-16T16:00:05.786Z,5.10
2023-04-16T16:02:33.812Z,5.93
2023-04-16T16:05:00.975Z,6.35
2023-04-16T16:07:27.640Z,5.60
2023-04-16T16:09:54.292Z,5.40
2023-04-16T16:12:20.920Z,5.15
2023-04-16T16:14:47.784Z,5.22
2023-04-16T16:17:14.433Z,5.38
2023-04-16T16:19:41.197Z,5.32
2023-04-16T16:22:09.665Z,6.00
2023-04-16T16:24:36.279Z,6.05
2023-04-16T16:27:02.993Z,6.07
2023-04-16T16:29:29.674Z,5.65
2023-04-16T16:31:56.497Z,5.90
2023-04-16T16:34:23.188Z,5.57
2023-04-16T16:36:49.935Z,5.93
2023-04-16T16:39:16.558Z,5.63
2023-04-16T16:41:43.231Z,6.57
2023-04-16T16:44:10.356Z,5.65
2023-04-16T16:46:37.294Z,5.10
2023-04-16T16:49:06.039Z,5.97
2023-04-16T16:51:34.003Z,5.38
2023-04-16T16:54:00.732Z,5.15
2023-04-16T16:56:28.004Z,5.25
2023-04-16T16:58:54.727Z,5.95
2023-04-16T17:01:21.373Z,5.20
2023-04-16T17:03:48.115Z,5.25
2023-04-16T17:06:14.941Z,5.63
2023-04-16T17:08:41.818Z,5.80
2023-04-16T17:11:08.619Z,5.38
2023-04-16T17:13:35.558Z,5.85
2023-04-16T17:16:02.428Z,5.57
2023-04-16T17:18:29.326Z,5.32
2023-04-16T17:20:56.153Z,4.80
2023-04-16T17:23:22.902Z,5.95
2023-04-16T17:25:49.835Z,5.38
2023-04-16T17:28:16.504Z,5.63
2023-04-16T17:30:43.274Z,4.80
2023-04-16T17:33:10.052Z,4.45
2023-04-16T17:35:36.692Z,5.07
2023-04-16T17:38:03.298Z,5.28
2023-04-16T17:40:29.899Z,4.95
2023-04-16T17:42:56.554Z,4.73
2023-04-16T17:45:23.312Z,5.00
2023-04-16T17:47:50.011Z,5.70
2023-04-16T17:50:16.715Z,5.20
2023-04-16T17:52:43.774Z,4.78
2023-04-16T17:55:11.157Z,6.70
2023-04-16T17:57:37.848Z,5.70
2023-04-16T18:00:14.426Z,5.88
2023-04-16T18:02:41.485Z,5.97
2023-04-16T18:05:08.920Z,5.45
2023-04-16T18:07:36.553Z,4.93
2023-04-16T18:10:03.320Z,4.70
2023-04-16T18:12:29.995Z,4.63
2023-04-16T18:14:56.670Z,6.23
2023-04-16T18:17:23.504Z,5.63
2023-04-16T18:19:50.536Z,5.30
2023-04-16T18:22:17.253Z,5.90
2023-04-16T18:24:43.872Z,6.10
2023-04-16T18:27:10.567Z,6.17
2023-04-16T18:29:39.687Z,5.60
2023-04-16T18:32:09.907Z,6.07
2023-04-16T18:34:38.555Z,6.40
2023-04-16T18:37:05.344Z,5.50
2023-04-16T18:39:35.890Z,5.40
2023-04-16T18:42:03.823Z,5.63
2023-04-16T18:44:30.881Z,5.40
2023-04-16T18:46:57.770Z,6.67
2023-04-16T18:49:24.943Z,4.83
2023-04-16T18:51:51.771Z,5.87
2023-04-16T18:54:19.911Z,5.67
2023-04-16T18:56:46.557Z,6.60
2023-04-16T18:59:13.652Z,6.40
2023-04-16T19:01:40.459Z,5.93
2023-04-16T19:04:07.132Z,5.73
2023-04-16T19:06:33.815Z,5.40
2023-04-16T19:09:00.526Z,6.33
2023-04-16T19:11:27.222Z,5.63
2023-04-16T19:13:54.003Z,5.90
2023-04-16T19:16:20.949Z,6.17
2023-04-16T19:18:47.605Z,6.23
2023-04-16T19:21:14.466Z,5.70
2023-04-16T19:23:41.208Z,6.20
2023-04-16T19:26:07.822Z,5.53
2023-04-16T19:28:34.536Z,5.30
2023-04-16T19:31:01.350Z,5.60
2023-04-16T19:33:28.172Z,6.37
2023-04-16T19:35:54.889Z,5.43
2023-04-16T19:38:21.487Z,6.60
2023-04-16T19:40:48.891Z,6.53
2023-04-16T19:43:15.747Z,5.30
2023-04-16T19:45:52.542Z,6.27
2023-04-16T19:48:19.970Z,6.63
2023-04-16T19:50:46.770Z,6.73
2023-04-16T19:53:13.378Z,7.20
2023-04-16T19:55:41.261Z,8.10
2023-04-16T19:58:09.459Z,7.50
2023-04-16T20:00:37.291Z,8.33
2023-04-16T20:03:04.864Z,6.73
2023-04-16T20:05:31.615Z,6.80
2023-04-16T20:07:58.278Z,7.27
2023-04-16T20:10:26.467Z,7.43
2023-04-16T20:12:53.351Z,8.30
2023-04-16T20:15:20.078Z,7.73
2023-04-16T20:17:46.774Z,8.30
2023-04-16T20:20:15.763Z,7.87
2023-04-16T20:22:43.382Z,7.17
2023-04-16T20:25:10.148Z,8.00
2023-04-16T20:27:36.832Z,7.80
2023-04-16T20:30:05.507Z,7.33
2023-04-16T20:32:32.389Z,7.00
2023-04-16T20:34:59.731Z,7.93
2023-04-16T20:37:26.322Z,6.80
2023-04-16T20:39:54.157Z,9.00
2023-04-16T20:42:22.733Z,8.30
2023-04-16T20:44:50.601Z,6.83
2023-04-16T20:47:17.373Z,7.50
2023-04-16T20:49:46.992Z,8.67
2023-04-16T20:52:14.276Z,7.60
2023-04-16T20:54:40.945Z,8.63
2023-04-16T20:57:07.648Z,8.10
2023-04-16T20:59:34.387Z,8.00
2023-04-16T21:02:01.054Z,8.10
2023-04-16T21:04:27.871Z,7.77
2023-04-16T21:06:55.038Z,8.97
2023-04-16T21:09:21.849Z,8.23
2023-04-16T21:11:48.618Z,8.33
2023-04-16T21:14:15.508Z,8.27
2023-04-16T21:16:42.169Z,7.80
2023-04-16T21:19:09.089Z,10.00
2023-04-16T21:21:36.549Z,8.70
2023-04-16T21:24:03.316Z,8.30
2023-04-16T21:26:29.951Z,7.53
2023-04-16T21:28:56.618Z,9.00
2023-04-16T21:31:23.410Z,8.60
2023-04-16T21:33:50.130Z,8.53
2023-04-16T21:36:19.469Z,9.50
2023-04-16T21:38:46.102Z,9.20
2023-04-16T21:41:15.464Z,9.40
2023-04-16T21:43:42.083Z,8.57
2023-04-16T21:46:08.739Z,8.90
2023-04-16T21:48:35.527Z,8.33
2023-04-16T21:51:06.585Z,9.37
2023-04-16T21:53:34.017Z,9.10
2023-04-16T21:56:00.728Z,10.00
2023-04-16T21:58:27.344Z,9.50
2023-04-16T22:00:54.247Z,9.43
2023-04-16T22:03:28.155Z,9.70
2023-04-16T22:06:02.564Z,9.35
2023-04-16T22:10:59.945Z,9.50
2023-04-16T22:13:27.873Z,8.53
2023-04-16T22:15:55.186Z,8.70
2023-04-16T22:18:24.331Z,9.43
2023-04-16T22:20:55.002Z,9.40
2023-04-16T22:23:22.986Z,10.17
2023-04-16T22:25:49.620Z,10.93
2023-04-16T22:28:16.288Z,10.17
2023-04-16T22:30:42.941Z,9.40
2023-04-16T22:33:09.580Z,10.10
2023-04-16T22:35:36.250Z,8.73
2023-04-16T22:38:02.863Z,9.80
2023-04-16T22:40:32.516Z,10.43
2023-04-16T22:42:59.174Z,9.93
2023-04-16T22:45:26.137Z,10.03
2023-04-16T22:47:52.905Z,9.43
2023-04-16T22:50:19.708Z,8.70
2023-04-16T22:52:46.349Z,9.27
2023-04-16T22:55:13.060Z,10.23
2023-04-16T22:57:39.816Z,8.80
2023-04-16T23:00:09.864Z,9.80
2023-04-16T23:02:39.780Z,9.80
2023-04-16T23:05:06.890Z,9.40
2023-04-16T23:07:34.109Z,8.57
2023-04-16T23:10:00.763Z,9.70
2023-04-16T23:12:27.368Z,9.50
2023-04-16T23:14:54.207Z,10.07
2023-04-16T23:17:21.109Z,8.77
2023-04-16T23:19:47.766Z,9.57
2023-04-16T23:22:14.370Z,9.20
2023-04-16T23:24:41.380Z,10.00
2023-04-16T23:27:08.283Z,8.83
2023-04-16T23:29:35.086Z,9.83
2023-04-16T23:32:03.109Z,8.53
2023-04-16T23:34:29.808Z,8.93
2023-04-16T23:36:56.465Z,8.67
2023-04-16T23:39:23.140Z,9.53
2023-04-16T23:41:49.833Z,9.63
2023-04-16T23:44:16.510Z,9.10
2023-04-16T23:46:43.207Z,9.13
2023-04-16T23:49:10.143Z,8.50
2023-04-16T23:51:37.043Z,8.80
2023-04-16T23:54:03.751Z,11.20
2023-04-16T23:56:30.360Z,9.10
2023-04-16T23:58:57.098Z,8.87
